sensor_id;sensor_type;location;lat;lon;timestamp;pressure;altitude;pressure_sealevel;temperature;humidity
45864;BME280;31579;52.354;16.974;2023-03-01T00:00:53;169.3;;;-146.1;100.0
45864;BME280;31579;52.354;16.974;2023-03-01T00:01:56;160.9;;;-146.1;100.0
45864;BME280;31579;52.354;16.974;2023-03-01T00:03:00;155.4;;;-146.1;100.0
45864;BME280;31579;52.354;16.974;2023-03-01T00:04:03;153.4;;;-146.1;100.0
45864;BME280;31579;52.354;16.974;2023-03-01T00:05:06;152.7;;;-146.1;100.0
45864;BME280;31579;52.354;16.974;2023-03-01T00:06:09;152.8;;;-146.1;100.0
45864;BME280;31579;52.354;16.974;2023-03-01T00:07:12;153.4;;;-146.1;100.0
45864;BME280;31579;52.354;16.974;2023-03-01T00:08:15;154.3;;;-146.1;100.0
45864;BME280;31579;52.354;16.974;2023-03-01T00:09:18;156.0;;;-146.1;100.0
45864;BME280;31579;52.354;16.974;2023-03-01T00:10:21;157.9;;;-146.1;100.0
45864;BME280;31579;52.354;16.974;2023-03-01T00:11:25;160.0;;;-146.1;100.0
45864;BME280;31579;52.354;16.974;2023-03-01T00:12:27;162.0;;;-146.1;100.0
45864;BME280;31579;52.354;16.974;2023-03-01T00:13:30;164.0;;;-146.1;100.0
45864;BME280;31579;52.354;16.974;2023-03-01T00:14:34;165.9;;;-146.1;100.0
45864;BME280;31579;52.354;16.974;2023-03-01T00:15:39;167.9;;;-146.1;100.0
45864;BME280;31579;52.354;16.974;2023-03-01T00:16:41;169.8;;;-146.1;100.0
45864;BME280;31579;52.354;16.974;2023-03-01T00:17:43;171.2;;;-146.1;100.0
45864;BME280;31579;52.354;16.974;2023-03-01T00:18:46;173.4;;;-146.1;100.0
45864;BME280;31579;52.354;16.974;2023-03-01T00:19:49;175.4;;;-146.1;100.0
45864;BME280;31579;52.354;16.974;2023-03-01T00:20:52;176.9;;;-146.1;100.0
45864;BME280;31579;52.354;16.974;2023-03-01T00:21:55;178.6;;;-146.1;100.0
45864;BME280;31579;52.354;16.974;2023-03-01T00:22:58;180.3;;;-146.1;100.0
45864;BME280;31579;52.354;16.974;2023-03-01T00:24:02;130.7;;;-146.1;100.0
45864;BME280;31579;52.354;16.974;2023-03-01T00:25:05;191.5;;;-146.1;100.0
45864;BME280;31579;52.354;16.974;2023-03-01T00:26:09;190.0;;;-146.1;100.0
45864;BME280;31579;52.354;16.974;2023-03-01T00:27:11;186.5;;;-146.1;100.0
45864;BME280;31579;52.354;16.974;2023-03-01T00:28:14;185.6;;;-146.1;100.0
45864;BME280;31579;52.354;16.974;2023-03-01T00:29:17;185.8;;;-146.1;100.0
45864;BME280;31579;52.354;16.974;2023-03-01T00:30:20;186.4;;;-146.1;100.0
45864;BME280;31579;52.354;16.974;2023-03-01T00:31:24;186.4;;;-146.1;100.0
45864;BME280;31579;52.354;16.974;2023-03-01T00:32:26;187.1;;;-146.1;100.0
45864;BME280;31579;52.354;16.974;2023-03-01T00:33:29;188.4;;;-146.1;100.0
45864;BME280;31579;52.354;16.974;2023-03-01T00:34:32;189.3;;;-146.1;100.0
45864;BME280;31579;52.354;16.974;2023-03-01T00:35:35;190.8;;;-146.1;100.0
45864;BME280;31579;52.354;16.974;2023-03-01T00:36:39;191.0;;;-146.1;100.0
45864;BME280;31579;52.354;16.974;2023-03-01T00:37:41;243.0;;;-146.1;100.0
45864;BME280;31579;52.354;16.974;2023-03-01T00:38:45;244.5;;;-146.1;100.0
45864;BME280;31579;52.354;16.974;2023-03-01T00:39:47;178.2;;;-146.1;100.0
45864;BME280;31579;52.354;16.974;2023-03-01T00:40:50;188.1;;;-146.1;100.0
45864;BME280;31579;52.354;16.974;2023-03-01T00:41:53;195.9;;;-146.1;100.0
45864;BME280;31579;52.354;16.974;2023-03-01T00:42:56;201.4;;;-146.1;100.0
45864;BME280;31579;52.354;16.974;2023-03-01T00:43:59;205.3;;;-146.1;100.0
45864;BME280;31579;52.354;16.974;2023-03-01T00:45:01;261.5;;;-146.1;100.0
45864;BME280;31579;52.354;16.974;2023-03-01T00:46:06;201.2;;;-146.1;100.0
45864;BME280;31579;52.354;16.974;2023-03-01T00:47:08;207.3;;;-146.1;100.0
45864;BME280;31579;52.354;16.974;2023-03-01T00:48:11;212.5;;;-146.1;100.0
45864;BME280;31579;52.354;16.974;2023-03-01T00:49:14;216.4;;;-146.1;100.0
45864;BME280;31579;52.354;16.974;2023-03-01T00:50:17;218.6;;;-146.1;100.0
45864;BME280;31579;52.354;16.974;2023-03-01T00:51:21;220.8;;;-146.1;100.0
45864;BME280;31579;52.354;16.974;2023-03-01T00:52:23;222.5;;;-146.1;100.0
45864;BME280;31579;52.354;16.974;2023-03-01T00:53:26;223.6;;;-146.1;100.0
45864;BME280;31579;52.354;16.974;2023-03-01T00:54:29;224.7;;;-146.1;100.0
45864;BME280;31579;52.354;16.974;2023-03-01T00:55:32;225.2;;;-146.1;100.0
45864;BME280;31579;52.354;16.974;2023-03-01T00:56:35;226.0;;;-146.1;100.0
45864;BME280;31579;52.354;16.974;2023-03-01T00:57:38;226.3;;;-146.1;100.0
45864;BME280;31579;52.354;16.974;2023-03-01T00:58:42;221.2;;;-146.1;100.0
45864;BME280;31579;52.354;16.974;2023-03-01T00:59:45;227.5;;;-146.1;100.0
45864;BME280;31579;52.354;16.974;2023-03-01T01:00:48;227.3;;;-146.1;100.0
45864;BME280;31579;52.354;16.974;2023-03-01T01:01:52;227.3;;;-146.1;100.0
45864;BME280;31579;52.354;16.974;2023-03-01T01:02:55;227.9;;;-146.1;100.0
45864;BME280;31579;52.354;16.974;2023-03-01T01:03:59;228.2;;;-146.1;100.0
45864;BME280;31579;52.354;16.974;2023-03-01T01:05:02;175.2;;;-146.1;100.0
45864;BME280;31579;52.354;16.974;2023-03-01T01:06:05;237.5;;;-146.1;100.0
45864;BME280;31579;52.354;16.974;2023-03-01T01:07:08;233.0;;;-146.1;100.0
45864;BME280;31579;52.354;16.974;2023-03-01T01:08:11;229.1;;;-146.1;100.0
45864;BME280;31579;52.354;16.974;2023-03-01T01:09:15;228.1;;;-146.1;100.0
45864;BME280;31579;52.354;16.974;2023-03-01T01:10:17;226.6;;;-146.1;100.0
45864;BME280;31579;52.354;16.974;2023-03-01T01:11:20;225.2;;;-146.1;100.0
45864;BME280;31579;52.354;16.974;2023-03-01T01:12:23;223.7;;;-146.1;100.0
45864;BME280;31579;52.354;16.974;2023-03-01T01:13:26;209.1;;;-146.1;100.0
45864;BME280;31579;52.354;16.974;2023-03-01T01:14:30;209.0;;;-146.1;100.0
45864;BME280;31579;52.354;16.974;2023-03-01T01:15:34;209.2;;;-146.1;100.0
45864;BME280;31579;52.354;16.974;2023-03-01T01:16:37;210.2;;;-146.1;100.0
45864;BME280;31579;52.354;16.974;2023-03-01T01:17:40;211.5;;;-146.1;100.0
45864;BME280;31579;52.354;16.974;2023-03-01T01:18:43;212.7;;;-146.1;100.0
45864;BME280;31579;52.354;16.974;2023-03-01T01:19:46;213.8;;;-146.1;100.0
45864;BME280;31579;52.354;16.974;2023-03-01T01:20:49;214.1;;;-146.1;100.0
45864;BME280;31579;52.354;16.974;2023-03-01T01:21:53;214.6;;;-146.1;100.0
45864;BME280;31579;52.354;16.974;2023-03-01T01:22:56;215.9;;;-146.1;100.0
45864;BME280;31579;52.354;16.974;2023-03-01T01:23:59;217.2;;;-146.1;100.0
45864;BME280;31579;52.354;16.974;2023-03-01T01:25:08;154.4;;;-146.1;100.0
45864;BME280;31579;52.354;16.974;2023-03-01T01:26:13;235.7;;;-146.1;100.0
45864;BME280;31579;52.354;16.974;2023-03-01T01:27:15;225.6;;;-146.1;100.0
45864;BME280;31579;52.354;16.974;2023-03-01T01:28:18;220.0;;;-146.1;100.0
45864;BME280;31579;52.354;16.974;2023-03-01T01:29:21;217.2;;;-146.1;100.0
45864;BME280;31579;52.354;16.974;2023-03-01T01:30:25;214.9;;;-146.1;100.0
45864;BME280;31579;52.354;16.974;2023-03-01T01:31:28;214.6;;;-146.1;100.0
45864;BME280;31579;52.354;16.974;2023-03-01T01:32:32;214.4;;;-146.1;100.0
45864;BME280;31579;52.354;16.974;2023-03-01T01:33:35;215.2;;;-146.1;100.0
45864;BME280;31579;52.354;16.974;2023-03-01T01:34:38;216.4;;;-146.1;100.0
45864;BME280;31579;52.354;16.974;2023-03-01T01:35:41;217.4;;;-146.1;100.0
45864;BME280;31579;52.354;16.974;2023-03-01T01:36:47;218.4;;;-146.1;100.0
45864;BME280;31579;52.354;16.974;2023-03-01T01:37:47;219.4;;;-146.1;100.0
45864;BME280;31579;52.354;16.974;2023-03-01T01:38:50;221.1;;;-146.1;100.0
45864;BME280;31579;52.354;16.974;2023-03-01T01:39:53;222.1;;;-146.1;100.0
45864;BME280;31579;52.354;16.974;2023-03-01T01:40:56;223.5;;;-146.1;100.0
45864;BME280;31579;52.354;16.974;2023-03-01T01:41:59;224.5;;;-146.1;100.0
45864;BME280;31579;52.354;16.974;2023-03-01T01:43:02;225.6;;;-146.1;100.0
45864;BME280;31579;52.354;16.974;2023-03-01T01:47:15;229.3;;;-146.1;100.0
45864;BME280;31579;52.354;16.974;2023-03-01T01:48:21;230.6;;;-146.1;100.0
45864;BME280;31579;52.354;16.974;2023-03-01T01:50:23;233.1;;;-146.1;100.0
45864;BME280;31579;52.354;16.974;2023-03-01T01:51:28;233.6;;;-146.1;100.0
45864;BME280;31579;52.354;16.974;2023-03-01T01:52:31;234.1;;;-146.1;100.0
45864;BME280;31579;52.354;16.974;2023-03-01T01:53:32;235.4;;;-146.1;100.0
45864;BME280;31579;52.354;16.974;2023-03-01T01:55:40;237.0;;;-146.1;100.0
45864;BME280;31579;52.354;16.974;2023-03-01T01:56:42;238.3;;;-146.1;100.0
45864;BME280;31579;52.354;16.974;2023-03-01T01:57:46;239.1;;;-146.1;100.0
45864;BME280;31579;52.354;16.974;2023-03-01T01:58:47;239.5;;;-146.1;100.0
45864;BME280;31579;52.354;16.974;2023-03-01T01:59:51;240.3;;;-146.1;100.0
45864;BME280;31579;52.354;16.974;2023-03-01T02:00:53;240.9;;;-146.1;100.0
45864;BME280;31579;52.354;16.974;2023-03-01T02:01:56;242.2;;;-146.1;100.0
45864;BME280;31579;52.354;16.974;2023-03-01T02:03:00;243.5;;;-146.1;100.0
45864;BME280;31579;52.354;16.974;2023-03-01T02:04:02;244.0;;;-146.1;100.0
45864;BME280;31579;52.354;16.974;2023-03-01T02:05:13;245.1;;;-146.1;100.0
45864;BME280;31579;52.354;16.974;2023-03-01T02:08:14;247.6;;;-146.1;100.0
45864;BME280;31579;52.354;16.974;2023-03-01T02:09:17;248.1;;;-146.1;100.0
45864;BME280;31579;52.354;16.974;2023-03-01T02:10:21;248.9;;;-146.1;100.0
45864;BME280;31579;52.354;16.974;2023-03-01T02:11:23;249.3;;;-146.1;100.0
45864;BME280;31579;52.354;16.974;2023-03-01T02:12:26;250.1;;;-146.1;100.0
45864;BME280;31579;52.354;16.974;2023-03-01T02:13:30;250.8;;;-146.1;100.0
45864;BME280;31579;52.354;16.974;2023-03-01T02:14:32;251.7;;;-146.1;100.0
45864;BME280;31579;52.354;16.974;2023-03-01T02:15:36;252.5;;;-146.1;100.0
45864;BME280;31579;52.354;16.974;2023-03-01T02:16:38;253.2;;;-146.1;100.0
45864;BME280;31579;52.354;16.974;2023-03-01T02:17:41;253.9;;;-146.1;100.0
45864;BME280;31579;52.354;16.974;2023-03-01T02:18:44;254.5;;;-146.1;100.0
45864;BME280;31579;52.354;16.974;2023-03-01T02:22:56;256.9;;;-146.1;100.0
45864;BME280;31579;52.354;16.974;2023-03-01T02:24:01;257.3;;;-146.1;100.0
45864;BME280;31579;52.354;16.974;2023-03-01T02:26:09;257.8;;;-146.1;100.0
45864;BME280;31579;52.354;16.974;2023-03-01T02:27:08;258.5;;;-146.1;100.0
45864;BME280;31579;52.354;16.974;2023-03-01T02:29:14;258.9;;;-146.1;100.0
45864;BME280;31579;52.354;16.974;2023-03-01T02:30:18;259.7;;;-146.1;100.0
45864;BME280;31579;52.354;16.974;2023-03-01T02:31:20;260.1;;;-146.1;100.0
45864;BME280;31579;52.354;16.974;2023-03-01T02:32:23;260.0;;;-146.1;100.0
45864;BME280;31579;52.354;16.974;2023-03-01T02:33:26;260.6;;;-146.1;100.0
45864;BME280;31579;52.354;16.974;2023-03-01T02:34:29;260.4;;;-146.1;100.0
45864;BME280;31579;52.354;16.974;2023-03-01T02:35:33;261.0;;;-146.1;100.0
45864;BME280;31579;52.354;16.974;2023-03-01T02:36:37;261.7;;;-146.1;100.0
45864;BME280;31579;52.354;16.974;2023-03-01T02:37:38;261.6;;;-146.1;100.0
45864;BME280;31579;52.354;16.974;2023-03-01T02:38:42;261.6;;;-146.1;100.0
45864;BME280;31579;52.354;16.974;2023-03-01T02:39:47;262.0;;;-146.1;100.0
45864;BME280;31579;52.354;16.974;2023-03-01T02:40:48;262.6;;;-146.1;100.0
45864;BME280;31579;52.354;16.974;2023-03-01T02:41:52;262.8;;;-146.1;100.0
45864;BME280;31579;52.354;16.974;2023-03-01T02:42:55;263.3;;;-146.1;100.0
45864;BME280;31579;52.354;16.974;2023-03-01T02:43:57;264.1;;;-146.1;100.0
45864;BME280;31579;52.354;16.974;2023-03-01T02:45:01;212.6;;;-146.1;100.0
45864;BME280;31579;52.354;16.974;2023-03-01T02:46:05;272.7;;;-146.1;100.0
45864;BME280;31579;52.354;16.974;2023-03-01T02:47:07;267.2;;;-146.1;100.0
45864;BME280;31579;52.354;16.974;2023-03-01T02:48:10;263.7;;;-146.1;100.0
45864;BME280;31579;52.354;16.974;2023-03-01T02:53:27;260.8;;;-146.1;100.0
45864;BME280;31579;52.354;16.974;2023-03-01T02:54:29;261.5;;;-146.1;100.0
45864;BME280;31579;52.354;16.974;2023-03-01T02:55:31;262.0;;;-146.1;100.0
45864;BME280;31579;52.354;16.974;2023-03-01T02:56:34;262.8;;;-146.1;100.0
45864;BME280;31579;52.354;16.974;2023-03-01T02:57:39;262.9;;;-146.1;100.0
45864;BME280;31579;52.354;16.974;2023-03-01T02:58:42;263.6;;;-146.1;100.0
45864;BME280;31579;52.354;16.974;2023-03-01T02:59:45;265.0;;;-146.1;100.0
45864;BME280;31579;52.354;16.974;2023-03-01T03:00:48;266.2;;;-146.1;100.0
45864;BME280;31579;52.354;16.974;2023-03-01T03:01:51;266.4;;;-146.1;100.0
45864;BME280;31579;52.354;16.974;2023-03-01T03:02:54;267.4;;;-146.1;100.0
45864;BME280;31579;52.354;16.974;2023-03-01T03:03:57;268.5;;;-146.1;100.0
45864;BME280;31579;52.354;16.974;2023-03-01T03:06:04;277.9;;;-146.1;100.0
45864;BME280;31579;52.354;16.974;2023-03-01T03:07:07;272.8;;;-146.1;100.0
45864;BME280;31579;52.354;16.974;2023-03-01T03:08:10;270.1;;;-146.1;100.0
45864;BME280;31579;52.354;16.974;2023-03-01T03:09:13;268.8;;;-146.1;100.0
45864;BME280;31579;52.354;16.974;2023-03-01T03:10:18;268.7;;;-146.1;100.0
45864;BME280;31579;52.354;16.974;2023-03-01T03:11:20;268.2;;;-146.1;100.0
45864;BME280;31579;52.354;16.974;2023-03-01T03:12:23;268.9;;;-146.1;100.0
45864;BME280;31579;52.354;16.974;2023-03-01T03:13:26;270.2;;;-146.1;100.0
45864;BME280;31579;52.354;16.974;2023-03-01T03:14:29;270.8;;;-146.1;100.0
45864;BME280;31579;52.354;16.974;2023-03-01T03:15:32;272.3;;;-146.1;100.0
45864;BME280;31579;52.354;16.974;2023-03-01T03:16:35;273.3;;;-146.1;100.0
45864;BME280;31579;52.354;16.974;2023-03-01T03:17:39;274.2;;;-146.1;100.0
45864;BME280;31579;52.354;16.974;2023-03-01T03:18:41;274.9;;;-146.1;100.0
45864;BME280;31579;52.354;16.974;2023-03-01T03:19:44;276.3;;;-146.1;100.0
45864;BME280;31579;52.354;16.974;2023-03-01T03:20:47;277.4;;;-146.1;100.0
45864;BME280;31579;52.354;16.974;2023-03-01T03:21:50;278.2;;;-146.1;100.0
45864;BME280;31579;52.354;16.974;2023-03-01T03:22:54;278.6;;;-146.1;100.0
45864;BME280;31579;52.354;16.974;2023-03-01T03:23:56;279.3;;;-146.1;100.0
45864;BME280;31579;52.354;16.974;2023-03-01T03:25:06;246.5;;;-146.1;100.0
45864;BME280;31579;52.354;16.974;2023-03-01T03:26:08;295.3;;;-146.1;100.0
45864;BME280;31579;52.354;16.974;2023-03-01T03:27:11;283.2;;;-146.1;100.0
45864;BME280;31579;52.354;16.974;2023-03-01T03:28:14;276.5;;;-146.1;100.0
45864;BME280;31579;52.354;16.974;2023-03-01T03:29:17;273.7;;;-146.1;100.0
45864;BME280;31579;52.354;16.974;2023-03-01T03:30:20;272.4;;;-146.1;100.0
45864;BME280;31579;52.354;16.974;2023-03-01T03:31:27;271.4;;;-146.1;100.0
45864;BME280;31579;52.354;16.974;2023-03-01T03:32:27;272.6;;;-146.1;100.0
45864;BME280;31579;52.354;16.974;2023-03-01T03:33:31;272.0;;;-146.1;100.0
45864;BME280;31579;52.354;16.974;2023-03-01T03:34:34;273.0;;;-146.1;100.0
45864;BME280;31579;52.354;16.974;2023-03-01T03:36:40;276.1;;;-146.1;100.0
45864;BME280;31579;52.354;16.974;2023-03-01T03:37:43;277.4;;;-146.1;100.0
45864;BME280;31579;52.354;16.974;2023-03-01T03:38:46;278.7;;;-146.1;100.0
45864;BME280;31579;52.354;16.974;2023-03-01T03:39:49;279.9;;;-146.1;100.0
45864;BME280;31579;52.354;16.974;2023-03-01T03:40:59;281.4;;;-146.1;100.0
45864;BME280;31579;52.354;16.974;2023-03-01T03:41:55;282.9;;;-146.1;100.0
45864;BME280;31579;52.354;16.974;2023-03-01T03:42:58;283.9;;;-146.1;100.0
45864;BME280;31579;52.354;16.974;2023-03-01T03:44:00;339.9;;;-146.1;100.0
45864;BME280;31579;52.354;16.974;2023-03-01T03:45:04;282.8;;;-146.1;100.0
45864;BME280;31579;52.354;16.974;2023-03-01T03:46:07;283.8;;;-146.1;100.0
45864;BME280;31579;52.354;16.974;2023-03-01T03:47:10;289.8;;;-146.1;100.0
45864;BME280;31579;52.354;16.974;2023-03-01T03:48:13;293.4;;;-146.1;100.0
45864;BME280;31579;52.354;16.974;2023-03-01T03:49:16;295.3;;;-146.1;100.0
45864;BME280;31579;52.354;16.974;2023-03-01T03:50:19;297.2;;;-146.1;100.0
45864;BME280;31579;52.354;16.974;2023-03-01T03:51:22;298.3;;;-146.1;100.0
45864;BME280;31579;52.354;16.974;2023-03-01T03:52:25;299.2;;;-146.1;100.0
45864;BME280;31579;52.354;16.974;2023-03-01T03:53:28;300.3;;;-146.1;100.0
45864;BME280;31579;52.354;16.974;2023-03-01T03:54:31;300.9;;;-146.1;100.0
45864;BME280;31579;52.354;16.974;2023-03-01T03:55:35;300.8;;;-146.1;100.0
45864;BME280;31579;52.354;16.974;2023-03-01T03:56:38;301.6;;;-146.1;100.0
45864;BME280;31579;52.354;16.974;2023-03-01T03:57:41;302.5;;;-146.1;100.0
45864;BME280;31579;52.354;16.974;2023-03-01T03:58:44;303.3;;;-146.1;100.0
45864;BME280;31579;52.354;16.974;2023-03-01T03:59:47;303.4;;;-146.1;100.0
45864;BME280;31579;52.354;16.974;2023-03-01T04:00:53;303.7;;;-146.1;100.0
45864;BME280;31579;52.354;16.974;2023-03-01T04:01:53;304.0;;;-146.1;100.0
45864;BME280;31579;52.354;16.974;2023-03-01T04:02:56;304.6;;;-146.1;100.0
45864;BME280;31579;52.354;16.974;2023-03-01T04:03:59;305.2;;;-146.1;100.0
45864;BME280;31579;52.354;16.974;2023-03-01T04:05:02;355.7;;;-146.1;100.0
45864;BME280;31579;52.354;16.974;2023-03-01T04:06:05;298.7;;;-146.1;100.0
45864;BME280;31579;52.354;16.974;2023-03-01T04:07:08;304.8;;;-146.1;100.0
45864;BME280;31579;52.354;16.974;2023-03-01T04:08:12;308.8;;;-146.1;100.0
45864;BME280;31579;52.354;16.974;2023-03-01T04:09:15;312.0;;;-146.1;100.0
45864;BME280;31579;52.354;16.974;2023-03-01T04:10:18;313.6;;;-146.1;100.0
45864;BME280;31579;52.354;16.974;2023-03-01T04:11:21;315.0;;;-146.1;100.0
45864;BME280;31579;52.354;16.974;2023-03-01T04:12:24;315.7;;;-146.1;100.0
45864;BME280;31579;52.354;16.974;2023-03-01T04:13:27;316.5;;;-146.1;100.0
45864;BME280;31579;52.354;16.974;2023-03-01T04:14:30;316.6;;;-146.1;100.0
45864;BME280;31579;52.354;16.974;2023-03-01T04:15:33;317.0;;;-146.1;100.0
45864;BME280;31579;52.354;16.974;2023-03-01T04:16:36;317.2;;;-146.1;100.0
45864;BME280;31579;52.354;16.974;2023-03-01T04:17:43;317.1;;;-146.1;100.0
45864;BME280;31579;52.354;16.974;2023-03-01T04:18:43;316.6;;;-146.1;100.0
45864;BME280;31579;52.354;16.974;2023-03-01T04:19:45;316.8;;;-146.1;100.0
45864;BME280;31579;52.354;16.974;2023-03-01T04:20:48;316.7;;;-146.1;100.0
45864;BME280;31579;52.354;16.974;2023-03-01T04:21:51;316.9;;;-146.1;100.0
45864;BME280;31579;52.354;16.974;2023-03-01T04:23:57;316.9;;;-146.1;100.0
45864;BME280;31579;52.354;16.974;2023-03-01T04:25:02;260.9;;;-146.1;100.0
45864;BME280;31579;52.354;16.974;2023-03-01T04:26:05;323.7;;;-146.1;100.0
45864;BME280;31579;52.354;16.974;2023-03-01T04:27:09;316.6;;;-146.1;100.0
45864;BME280;31579;52.354;16.974;2023-03-01T04:28:12;312.9;;;-146.1;100.0
45864;BME280;31579;52.354;16.974;2023-03-01T04:29:14;310.8;;;-146.1;100.0
45864;BME280;31579;52.354;16.974;2023-03-01T04:30:17;309.6;;;-146.1;100.0
45864;BME280;31579;52.354;16.974;2023-03-01T04:31:20;309.4;;;-146.1;100.0
45864;BME280;31579;52.354;16.974;2023-03-01T04:32:23;309.5;;;-146.1;100.0
45864;BME280;31579;52.354;16.974;2023-03-01T04:33:26;309.8;;;-146.1;100.0
45864;BME280;31579;52.354;16.974;2023-03-01T04:34:29;310.2;;;-146.1;100.0
45864;BME280;31579;52.354;16.974;2023-03-01T04:35:32;310.8;;;-146.1;100.0
45864;BME280;31579;52.354;16.974;2023-03-01T04:36:35;311.3;;;-146.1;100.0
45864;BME280;31579;52.354;16.974;2023-03-01T04:37:38;312.3;;;-146.1;100.0
45864;BME280;31579;52.354;16.974;2023-03-01T04:38:42;312.2;;;-146.1;100.0
45864;BME280;31579;52.354;16.974;2023-03-01T04:39:45;313.3;;;-146.1;100.0
45864;BME280;31579;52.354;16.974;2023-03-01T04:40:48;314.1;;;-146.1;100.0
45864;BME280;31579;52.354;16.974;2023-03-01T04:41:51;314.5;;;-146.1;100.0
45864;BME280;31579;52.354;16.974;2023-03-01T04:42:54;315.6;;;-146.1;100.0
45864;BME280;31579;52.354;16.974;2023-03-01T04:43:57;316.3;;;-146.1;100.0
45864;BME280;31579;52.354;16.974;2023-03-01T04:45:04;203.7;;;-146.1;100.0
45864;BME280;31579;52.354;16.974;2023-03-01T04:46:09;335.7;;;-146.1;100.0
45864;BME280;31579;52.354;16.974;2023-03-01T04:47:10;317.2;;;-146.1;100.0
45864;BME280;31579;52.354;16.974;2023-03-01T04:48:13;307.4;;;-146.1;100.0
45864;BME280;31579;52.354;16.974;2023-03-01T04:49:16;302.9;;;-146.1;100.0
45864;BME280;31579;52.354;16.974;2023-03-01T04:50:19;301.1;;;-146.1;100.0
45864;BME280;31579;52.354;16.974;2023-03-01T04:51:22;300.3;;;-146.1;100.0
45864;BME280;31579;52.354;16.974;2023-03-01T04:52:25;300.9;;;-146.1;100.0
45864;BME280;31579;52.354;16.974;2023-03-01T04:53:28;301.6;;;-146.1;100.0
45864;BME280;31579;52.354;16.974;2023-03-01T04:54:32;303.3;;;-146.1;100.0
45864;BME280;31579;52.354;16.974;2023-03-01T04:55:34;304.5;;;-146.1;100.0
45864;BME280;31579;52.354;16.974;2023-03-01T04:56:37;306.6;;;-146.1;100.0
45864;BME280;31579;52.354;16.974;2023-03-01T04:57:40;308.2;;;-146.1;100.0
45864;BME280;31579;52.354;16.974;2023-03-01T04:58:44;309.6;;;-146.1;100.0
45864;BME280;31579;52.354;16.974;2023-03-01T04:59:46;311.4;;;-146.1;100.0
45864;BME280;31579;52.354;16.974;2023-03-01T05:00:49;312.6;;;-146.1;100.0
45864;BME280;31579;52.354;16.974;2023-03-01T05:01:53;313.8;;;-146.1;100.0
45864;BME280;31579;52.354;16.974;2023-03-01T05:02:56;314.9;;;-146.1;100.0
45864;BME280;31579;52.354;16.974;2023-03-01T05:03:58;316.5;;;-146.1;100.0
45864;BME280;31579;52.354;16.974;2023-03-01T05:05:00;373.8;;;-146.1;100.0
45864;BME280;31579;52.354;16.974;2023-03-01T05:06:03;311.4;;;-146.1;100.0
45864;BME280;31579;52.354;16.974;2023-03-01T05:07:06;319.4;;;-146.1;100.0
45864;BME280;31579;52.354;16.974;2023-03-01T05:08:09;324.0;;;-146.1;100.0
45864;BME280;31579;52.354;16.974;2023-03-01T05:09:12;327.5;;;-146.1;100.0
45864;BME280;31579;52.354;16.974;2023-03-01T05:10:15;329.5;;;-146.1;100.0
45864;BME280;31579;52.354;16.974;2023-03-01T05:11:19;330.3;;;-146.1;100.0
45864;BME280;31579;52.354;16.974;2023-03-01T05:12:22;331.9;;;-146.1;100.0
45864;BME280;31579;52.354;16.974;2023-03-01T05:13:25;332.6;;;-146.1;100.0
45864;BME280;31579;52.354;16.974;2023-03-01T05:14:29;332.9;;;-146.1;100.0
45864;BME280;31579;52.354;16.974;2023-03-01T05:15:32;334.2;;;-146.1;100.0
45864;BME280;31579;52.354;16.974;2023-03-01T05:16:41;303.7;;;-146.1;100.0
45864;BME280;31579;52.354;16.974;2023-03-01T05:17:44;346.3;;;-146.1;100.0
45864;BME280;31579;52.354;16.974;2023-03-01T05:18:47;332.4;;;-146.1;100.0
45864;BME280;31579;52.354;16.974;2023-03-01T05:19:50;325.1;;;-146.1;100.0
45864;BME280;31579;52.354;16.974;2023-03-01T05:20:54;320.9;;;-146.1;100.0
45864;BME280;31579;52.354;16.974;2023-03-01T05:21:57;319.0;;;-146.1;100.0
45864;BME280;31579;52.354;16.974;2023-03-01T05:23:00;318.7;;;-146.1;100.0
45864;BME280;31579;52.354;16.974;2023-03-01T05:24:03;318.4;;;-146.1;100.0
45864;BME280;31579;52.354;16.974;2023-03-01T05:25:05;319.1;;;-146.1;100.0
45864;BME280;31579;52.354;16.974;2023-03-01T05:26:08;319.8;;;-146.1;100.0
45864;BME280;31579;52.354;16.974;2023-03-01T05:27:12;319.5;;;-146.1;100.0
45864;BME280;31579;52.354;16.974;2023-03-01T05:28:15;320.8;;;-146.1;100.0
45864;BME280;31579;52.354;16.974;2023-03-01T05:29:19;322.6;;;-146.1;100.0
45864;BME280;31579;52.354;16.974;2023-03-01T05:30:21;323.1;;;-146.1;100.0
45864;BME280;31579;52.354;16.974;2023-03-01T05:31:24;324.2;;;-146.1;100.0
45864;BME280;31579;52.354;16.974;2023-03-01T05:32:27;325.1;;;-146.1;100.0
45864;BME280;31579;52.354;16.974;2023-03-01T05:33:30;326.3;;;-146.1;100.0
45864;BME280;31579;52.354;16.974;2023-03-01T05:34:34;327.2;;;-146.1;100.0
45864;BME280;31579;52.354;16.974;2023-03-01T05:35:36;328.0;;;-146.1;100.0
45864;BME280;31579;52.354;16.974;2023-03-01T05:36:39;329.0;;;-146.1;100.0
45864;BME280;31579;52.354;16.974;2023-03-01T05:37:43;330.3;;;-146.1;100.0
45864;BME280;31579;52.354;16.974;2023-03-01T05:38:45;330.7;;;-146.1;100.0
45864;BME280;31579;52.354;16.974;2023-03-01T05:39:48;331.0;;;-146.1;100.0
45864;BME280;31579;52.354;16.974;2023-03-01T05:40:52;331.1;;;-146.1;100.0
45864;BME280;31579;52.354;16.974;2023-03-01T05:41:56;332.0;;;-146.1;100.0
45864;BME280;31579;52.354;16.974;2023-03-01T05:42:58;333.5;;;-146.1;100.0
45864;BME280;31579;52.354;16.974;2023-03-01T05:44:00;390.7;;;-146.1;100.0
45864;BME280;31579;52.354;16.974;2023-03-01T05:45:04;327.9;;;-146.1;100.0
45864;BME280;31579;52.354;16.974;2023-03-01T05:46:07;336.0;;;-146.1;100.0
45864;BME280;31579;52.354;16.974;2023-03-01T05:47:10;340.5;;;-146.1;100.0
45864;BME280;31579;52.354;16.974;2023-03-01T05:48:13;343.5;;;-146.1;100.0
45864;BME280;31579;52.354;16.974;2023-03-01T05:49:16;345.4;;;-146.1;100.0
45864;BME280;31579;52.354;16.974;2023-03-01T05:50:20;346.8;;;-146.1;100.0
45864;BME280;31579;52.354;16.974;2023-03-01T05:51:22;347.3;;;-146.1;100.0
45864;BME280;31579;52.354;16.974;2023-03-01T05:52:25;348.1;;;-146.1;100.0
45864;BME280;31579;52.354;16.974;2023-03-01T05:53:28;348.6;;;-146.1;100.0
45864;BME280;31579;52.354;16.974;2023-03-01T05:54:31;348.9;;;-146.1;100.0
45864;BME280;31579;52.354;16.974;2023-03-01T05:55:35;349.3;;;-146.1;100.0
45864;BME280;31579;52.354;16.974;2023-03-01T05:56:38;298.0;;;-146.1;100.0
45864;BME280;31579;52.354;16.974;2023-03-01T05:57:41;356.1;;;-146.1;100.0
45864;BME280;31579;52.354;16.974;2023-03-01T05:58:44;349.0;;;-146.1;100.0